createdAt,value
2023-04-02T00:02:20.791Z,75.14
2023-04-02T00:05:13.793Z,75.71
2023-04-02T00:07:42.630Z,75.36
2023-04-02T00:10:36.979Z,75.00
2023-04-02T00:13:18.187Z,76.70
2023-04-02T00:15:47.893Z,75.34
2023-04-02T00:18:20.661Z,75.81
2023-04-02T00:20:56.416Z,76.66
2023-04-02T00:23:24.555Z,76.57
2023-04-02T00:25:52.641Z,76.59
2023-04-02T00:28:22.839Z,76.91
2023-04-02T00:30:56.280Z,77.62
2023-04-02T00:33:26.927Z,77.68
2023-04-02T00:35:55.066Z,77.82
2023-04-02T00:38:30.368Z,77.03
2023-04-02T00:41:06.778Z,76.94
2023-04-02T00:43:38.362Z,77.43
2023-04-02T00:46:12.380Z,77.79
2023-04-02T00:49:08.179Z,78.09
2023-04-02T00:51:38.860Z,78.22
2023-04-02T00:54:10.291Z,77.99
2023-04-02T00:56:41.400Z,77.94
2023-04-02T00:59:32.651Z,78.50
2023-04-02T01:02:15.980Z,78.80
2023-04-02T01:04:55.741Z,79.00
2023-04-02T01:07:48.429Z,78.97
2023-04-02T01:10:34.433Z,79.65
2023-04-02T01:13:17.284Z,79.11
2023-04-02T01:15:51.512Z,79.92
2023-04-02T01:18:37.914Z,79.28
2023-04-02T01:21:05.614Z,79.23
2023-04-02T01:23:39.782Z,79.59
2023-04-02T01:26:10.333Z,79.43
2023-04-02T01:29:04.383Z,79.58
2023-04-02T01:31:33.172Z,80.13
2023-04-02T01:34:03.221Z,80.10
2023-04-02T01:36:34.111Z,79.51
2023-04-02T01:39:33.628Z,79.51
2023-04-02T01:42:21.103Z,79.47
2023-04-02T01:44:51.285Z,79.69
2023-04-02T01:47:23.487Z,79.45
2023-04-02T01:49:54.873Z,79.76
2023-04-02T01:52:35.692Z,79.67
2023-04-02T01:55:04.746Z,79.20
2023-04-02T01:57:32.531Z,79.40
2023-04-02T02:00:01.693Z,79.15
2023-04-02T02:02:30.948Z,79.51
2023-04-02T02:04:59.180Z,79.13
2023-04-02T02:07:27.639Z,78.17
2023-04-02T02:09:55.771Z,77.26
2023-04-02T02:12:23.875Z,77.21
2023-04-02T02:14:51.788Z,77.61
2023-04-02T02:17:27.826Z,77.64
2023-04-02T02:19:57.162Z,77.22
2023-04-02T02:22:33.625Z,76.71
2023-04-02T02:25:04.483Z,76.44
2023-04-02T02:27:43.269Z,75.96
2023-04-02T02:30:13.332Z,75.80
2023-04-02T02:32:48.414Z,76.01
2023-04-02T02:35:42.050Z,76.45
2023-04-02T02:38:50.724Z,75.74
2023-04-02T02:41:33.432Z,76.17
2023-04-02T02:44:06.735Z,75.42
2023-04-02T02:46:37.837Z,75.31
2023-04-02T02:49:07.442Z,75.75
2023-04-02T02:51:42.628Z,75.17
2023-04-02T02:54:11.303Z,76.07
2023-04-02T02:56:43.588Z,75.99
2023-04-02T02:59:12.244Z,77.76
2023-04-02T03:01:41.251Z,77.87
2023-04-02T03:04:09.162Z,77.91
2023-04-02T03:06:37.601Z,78.50
2023-04-02T03:09:20.623Z,77.87
2023-04-02T03:12:02.569Z,78.67
2023-04-02T03:14:30.412Z,78.95
2023-04-02T03:17:06.244Z,78.58
2023-04-02T03:19:40.108Z,77.10
2023-04-02T03:22:14.280Z,77.75
2023-04-02T03:24:56.500Z,78.40
2023-04-02T03:27:29.748Z,79.47
2023-04-02T03:30:35.304Z,79.70
2023-04-02T03:33:09.555Z,79.36
2023-04-02T03:35:55.202Z,79.08
2023-04-02T03:38:35.795Z,79.97
2023-04-02T03:41:10.085Z,80.34
2023-04-02T03:43:46.106Z,79.75
2023-04-02T03:46:24.269Z,79.91
2023-04-02T03:48:59.154Z,80.15
2023-04-02T03:51:32.563Z,80.90
2023-04-02T03:54:04.690Z,81.24
2023-04-02T03:56:36.141Z,80.20
2023-04-02T03:59:14.402Z,79.50
2023-04-02T04:01:52.894Z,79.76
2023-04-02T04:04:22.364Z,79.58
2023-04-02T04:06:51.161Z,79.33
2023-04-02T04:09:27.145Z,80.90
2023-04-02T04:12:34.140Z,80.85
2023-04-02T04:15:08.472Z,81.26
2023-04-02T04:17:55.159Z,80.93
2023-04-02T04:20:40.565Z,81.92
2023-04-02T04:23:39.556Z,80.56
2023-04-02T04:26:19.289Z,81.14
2023-04-02T04:29:05.958Z,80.30
2023-04-02T04:31:52.900Z,80.17
2023-04-02T04:38:29.747Z,80.96
2023-04-02T04:41:12.035Z,81.76
2023-04-02T04:43:46.962Z,81.82
2023-04-02T04:46:22.972Z,81.26
2023-04-02T04:49:02.622Z,80.90
2023-04-02T04:51:39.275Z,80.18
2023-04-02T04:54:12.710Z,80.12
2023-04-02T04:56:48.197Z,80.75
2023-04-02T04:59:43.422Z,80.51
2023-04-02T05:02:34.733Z,81.36
2023-04-02T05:05:03.738Z,81.29
2023-04-02T05:07:36.729Z,80.18
2023-04-02T05:10:15.610Z,80.21
2023-04-02T05:12:53.448Z,79.87
2023-04-02T05:15:35.073Z,80.40
2023-04-02T05:18:16.581Z,80.06
2023-04-02T05:20:49.695Z,79.87
2023-04-02T05:23:23.262Z,79.95
2023-04-02T05:26:02.352Z,79.61
2023-04-02T05:28:58.751Z,80.06
2023-04-02T05:31:37.959Z,79.31
2023-04-02T05:34:06.458Z,79.75
2023-04-02T05:36:34.770Z,79.05
2023-04-02T05:39:02.529Z,78.32
2023-04-02T05:41:43.780Z,78.45
2023-04-02T05:44:26.408Z,78.40
2023-04-02T05:47:05.518Z,78.14
2023-04-02T05:49:41.899Z,78.69
2023-04-02T05:52:32.362Z,78.56
2023-04-02T05:55:12.837Z,78.28
2023-04-02T05:58:17.687Z,77.90
2023-04-02T06:00:51.530Z,77.81
2023-04-02T06:03:25.457Z,77.59
2023-04-02T06:05:58.080Z,78.07
2023-04-02T06:08:39.611Z,77.69
2023-04-02T06:11:11.456Z,76.73
2023-04-02T06:13:40.758Z,76.74
2023-04-02T06:16:13.316Z,76.85
2023-04-02T06:18:41.941Z,76.61
2023-04-02T06:21:12.564Z,75.92
2023-04-02T06:23:46.020Z,75.66
2023-04-02T06:26:35.356Z,75.28
2023-04-02T06:29:14.107Z,74.48
2023-04-02T06:31:49.477Z,74.48
2023-04-02T06:34:22.761Z,73.96
2023-04-02T06:36:55.890Z,73.01
2023-04-02T06:39:25.733Z,72.88
2023-04-02T06:42:11.051Z,73.32
2023-04-02T06:44:41.660Z,72.96
2023-04-02T06:47:26.759Z,71.87
2023-04-02T06:50:13.580Z,72.18
2023-04-02T06:52:57.733Z,71.48
2023-04-02T06:55:44.061Z,70.22
2023-04-02T06:58:14.205Z,70.27
2023-04-02T07:00:44.557Z,71.48
2023-04-02T07:03:28.691Z,70.59
2023-04-02T07:05:57.417Z,70.94
2023-04-02T07:08:25.700Z,70.44
2023-04-02T07:10:53.523Z,70.46
2023-04-02T07:13:23.206Z,69.80
2023-04-02T07:15:53.427Z,69.62
2023-04-02T07:18:31.122Z,69.20
2023-04-02T07:21:00.123Z,67.40
2023-04-02T07:23:28.648Z,68.19
2023-04-02T07:25:56.891Z,67.27
2023-04-02T07:28:26.078Z,67.32
2023-04-02T07:30:54.584Z,67.15
2023-04-02T07:33:25.126Z,66.09
2023-04-02T07:35:54.631Z,67.28
2023-04-02T07:38:22.571Z,65.54
2023-04-02T07:40:50.273Z,64.23
2023-04-02T07:43:18.307Z,65.17
2023-04-02T07:45:45.970Z,63.52
2023-04-02T07:48:14.209Z,63.37
2023-04-02T07:50:42.291Z,63.46
2023-04-02T07:53:28.788Z,62.17
2023-04-02T07:55:58.625Z,62.59
2023-04-02T07:58:26.259Z,62.19
2023-04-02T08:00:54.085Z,61.06
2023-04-02T08:03:22.260Z,59.53
2023-04-02T08:05:54.130Z,59.20
2023-04-02T08:08:23.099Z,59.62
2023-04-02T08:10:51.186Z,57.61
2023-04-02T08:13:22.091Z,58.77
2023-04-02T08:15:50.297Z,58.28
2023-04-02T08:18:22.505Z,57.32
2023-04-02T08:20:50.762Z,57.25
2023-04-02T08:23:18.869Z,56.10
2023-04-02T08:25:48.671Z,56.24
2023-04-02T08:28:25.870Z,53.58
2023-04-02T08:30:53.705Z,54.69
2023-04-02T08:33:21.796Z,55.67
2023-04-02T08:35:52.405Z,54.27
2023-04-02T08:38:21.769Z,54.53
2023-04-02T08:40:54.399Z,54.70
2023-04-02T08:43:31.079Z,55.15
2023-04-02T08:45:59.242Z,55.59
2023-04-02T08:48:27.231Z,56.65
2023-04-02T08:50:55.043Z,55.49
2023-04-02T08:56:59.256Z,55.19
2023-04-02T09:03:15.061Z,55.27
2023-04-02T09:16:41.962Z,54.17
2023-04-02T09:19:26.773Z,52.87
2023-04-02T09:22:16.534Z,53.38
2023-04-02T09:24:45.703Z,53.24
2023-04-02T09:27:19.124Z,53.64
2023-04-02T09:29:50.147Z,53.52
2023-04-02T09:32:29.876Z,52.95
2023-04-02T09:35:22.372Z,52.58
2023-04-02T09:38:29.026Z,51.39
2023-04-02T09:41:01.899Z,53.04
2023-04-02T09:43:39.096Z,53.66
2023-04-02T09:46:13.272Z,52.15
2023-04-02T09:48:45.398Z,51.29
2023-04-02T09:51:20.741Z,53.07
2023-04-02T09:53:51.371Z,50.29
2023-04-02T09:56:24.017Z,50.93
2023-04-02T09:59:13.909Z,50.90
2023-04-02T10:01:45.149Z,50.02
2023-04-02T10:04:36.985Z,50.82
2023-04-02T10:07:06.090Z,50.50
2023-04-02T10:09:58.227Z,49.61
2023-04-02T10:12:27.206Z,52.17
2023-04-02T10:14:56.285Z,48.21
2023-04-02T10:17:32.819Z,47.35
2023-04-02T10:20:20.943Z,46.93
2023-04-02T10:22:48.688Z,47.09
2023-04-02T10:25:18.044Z,47.33
2023-04-02T10:28:05.973Z,47.34
2023-04-02T10:31:03.610Z,47.87
2023-04-02T10:33:36.290Z,47.34
2023-04-02T10:36:10.933Z,48.69
2023-04-02T10:38:45.119Z,50.41
2023-04-02T10:41:34.171Z,48.15
2023-04-02T10:44:28.356Z,48.26
2023-04-02T10:47:02.361Z,46.89
2023-04-02T10:49:49.020Z,48.54
2023-04-02T10:52:41.505Z,46.52
2023-04-02T10:55:18.839Z,46.44
2023-04-02T10:57:47.246Z,46.65
2023-04-02T11:00:20.180Z,46.61
2023-04-02T11:03:00.351Z,45.35
2023-04-02T11:06:04.413Z,46.74
2023-04-02T11:08:57.751Z,48.05
2023-04-02T11:11:32.208Z,45.97
2023-04-02T11:14:26.313Z,45.65
2023-04-02T11:17:18.149Z,47.21
2023-04-02T11:19:47.335Z,45.49
2023-04-02T11:22:18.290Z,47.19
2023-04-02T11:24:48.077Z,45.46
2023-04-02T11:27:35.867Z,45.18
2023-04-02T11:30:15.683Z,46.54
2023-04-02T11:36:32.886Z,46.15
2023-04-02T11:39:14.718Z,44.65
2023-04-02T11:42:24.013Z,43.96
2023-04-02T11:44:53.214Z,43.72
2023-04-02T11:47:25.606Z,45.23
2023-04-02T11:49:56.989Z,44.06
2023-04-02T11:52:26.839Z,43.08
2023-04-02T11:54:58.666Z,43.05
2023-04-02T11:57:55.426Z,42.70
2023-04-02T12:00:32.842Z,40.46
2023-04-02T12:03:47.967Z,41.49
2023-04-02T12:06:31.186Z,40.56
2023-04-02T12:09:18.291Z,39.74
2023-04-02T12:11:46.471Z,40.24
2023-04-02T12:14:32.974Z,40.15
2023-04-02T12:17:01.256Z,39.67
2023-04-02T12:19:30.586Z,41.59
2023-04-02T12:22:00.731Z,43.04
2023-04-02T12:24:29.319Z,42.14
2023-04-02T12:27:16.369Z,41.44
2023-04-02T12:29:44.453Z,38.98
2023-04-02T12:32:24.536Z,38.38
2023-04-02T12:34:56.365Z,39.08
2023-04-02T12:37:31.754Z,38.11
2023-04-02T12:40:02.555Z,36.82
2023-04-02T12:42:32.347Z,35.54
2023-04-02T12:45:01.023Z,34.16
2023-04-02T12:47:33.858Z,35.36
2023-04-02T12:50:02.442Z,36.38
2023-04-02T12:52:40.750Z,38.56
2023-04-02T12:55:19.563Z,37.69
2023-04-02T12:57:47.487Z,39.67
2023-04-02T13:03:37.429Z,38.00
2023-04-02T13:06:21.859Z,39.00
2023-04-02T13:10:24.328Z,40.01
2023-04-02T13:12:41.310Z,40.13
2023-04-02T13:15:21.587Z,39.35
2023-04-02T13:18:12.167Z,39.71
2023-04-02T13:20:41.364Z,39.96
2023-04-02T13:23:27.495Z,41.88
2023-04-02T13:26:22.600Z,42.75
2023-04-02T13:29:15.034Z,44.61
2023-04-02T13:31:42.769Z,43.78
2023-04-02T13:34:11.896Z,42.19
2023-04-02T13:36:39.591Z,42.09
2023-04-02T13:39:07.916Z,41.11
2023-04-02T13:41:44.250Z,40.30
2023-04-02T13:44:23.174Z,39.38
2023-04-02T13:46:52.461Z,38.68
2023-04-02T13:49:20.993Z,38.37
2023-04-02T13:52:00.848Z,39.87
2023-04-02T13:54:55.953Z,38.05
2023-04-02T13:57:23.920Z,39.27
2023-04-02T13:59:52.056Z,36.02
2023-04-02T14:02:22.321Z,36.16
2023-04-02T14:04:55.689Z,36.64
2023-04-02T14:07:45.358Z,35.55
2023-04-02T14:10:30.484Z,36.82
2023-04-02T14:13:10.307Z,38.85
2023-04-02T14:15:57.350Z,38.06
2023-04-02T14:18:35.468Z,40.38
2023-04-02T14:21:43.150Z,38.28
2023-04-02T14:26:12.558Z,36.67
2023-04-02T14:28:07.377Z,35.69
2023-04-02T14:30:49.200Z,37.72
2023-04-02T14:33:30.945Z,37.26
2023-04-02T14:36:11.121Z,37.86
2023-04-02T14:42:10.021Z,38.19
2023-04-02T14:44:45.680Z,38.45
2023-04-02T14:47:25.384Z,38.85
2023-04-02T14:49:58.252Z,38.24
2023-04-02T14:52:28.921Z,38.00
2023-04-02T14:55:02.710Z,38.06
2023-04-02T14:57:40.072Z,40.15
2023-04-02T15:00:21.900Z,46.60
2023-04-02T15:03:13.696Z,50.03
2023-04-02T15:05:50.438Z,52.18
2023-04-02T15:08:25.160Z,53.34
2023-04-02T15:11:04.918Z,55.86
2023-04-02T15:13:41.377Z,56.25
2023-04-02T15:16:15.777Z,56.37
2023-04-02T15:18:43.696Z,55.43
2023-04-02T15:21:20.868Z,56.44
2023-04-02T15:24:02.282Z,57.31
2023-04-02T15:27:21.899Z,59.00
2023-04-02T15:30:13.443Z,61.46
2023-04-02T15:32:43.277Z,63.53
2023-04-02T15:35:32.690Z,64.38
2023-04-02T15:38:33.981Z,66.12
2023-04-02T15:41:04.541Z,64.68
2023-04-02T15:43:39.482Z,67.19
2023-04-02T15:46:25.641Z,65.76
2023-04-02T15:49:05.529Z,66.16
2023-04-02T15:51:57.786Z,65.76
2023-04-02T15:54:51.136Z,65.06
2023-04-02T15:57:35.553Z,66.27
2023-04-02T16:00:31.193Z,65.35
2023-04-02T16:03:27.378Z,66.63
2023-04-02T16:06:19.817Z,66.90
2023-04-02T16:09:07.046Z,66.97
2023-04-02T16:11:35.059Z,66.65
2023-04-02T16:14:16.000Z,67.15
2023-04-02T16:16:45.200Z,67.80
2023-04-02T16:19:30.508Z,67.16
2023-04-02T16:22:04.835Z,66.57
2023-04-02T16:24:32.946Z,67.55
2023-04-02T16:27:12.726Z,67.67
2023-04-02T16:30:01.863Z,67.33
2023-04-02T16:32:39.661Z,67.71
2023-04-02T16:35:43.882Z,66.01
2023-04-02T16:38:32.708Z,67.07
2023-04-02T16:41:09.121Z,67.02
2023-04-02T16:44:04.644Z,66.40
2023-04-02T16:46:44.939Z,66.19
2023-04-02T16:49:37.120Z,67.47
2023-04-02T16:52:11.682Z,68.97
2023-04-02T16:55:41.401Z,69.08
2023-04-02T16:58:18.814Z,70.58
2023-04-02T17:00:53.544Z,70.07
2023-04-02T17:03:40.262Z,72.10
2023-04-02T17:06:16.378Z,72.35
2023-04-02T17:08:53.288Z,73.10
2023-04-02T17:11:24.811Z,74.49
2023-04-02T17:13:58.439Z,75.75
2023-04-02T17:16:34.679Z,75.21
2023-04-02T17:19:09.561Z,74.43
2023-04-02T17:21:40.242Z,73.92
2023-04-02T17:24:14.327Z,74.51
2023-04-02T17:26:42.047Z,75.23
2023-04-02T17:29:29.590Z,76.01
2023-04-02T17:32:01.416Z,75.58
2023-04-02T17:34:30.239Z,75.21
2023-04-02T17:37:13.446Z,73.48
2023-04-02T17:40:03.419Z,73.81
2023-04-02T17:42:34.900Z,78.13
2023-04-02T17:45:51.103Z,79.17
2023-04-02T17:48:43.878Z,78.85
2023-04-02T17:51:26.864Z,78.56
2023-04-02T17:54:15.908Z,80.43
2023-04-02T17:57:04.733Z,79.29
2023-04-02T17:59:33.400Z,81.18
2023-04-02T18:02:44.747Z,80.97
2023-04-02T18:05:32.396Z,81.41
2023-04-02T18:08:18.511Z,81.81
2023-04-02T18:11:08.895Z,82.62
2023-04-02T18:13:41.955Z,82.33
2023-04-02T18:16:43.894Z,82.32
2023-04-02T18:19:52.834Z,82.39
2023-04-02T18:22:28.591Z,83.44
2023-04-02T18:25:15.311Z,84.23
2023-04-02T18:27:49.224Z,83.28
2023-04-02T18:30:41.089Z,84.86
2023-04-02T18:33:13.371Z,85.30
2023-04-02T18:36:02.316Z,86.55
2023-04-02T18:38:46.287Z,86.57
2023-04-02T18:41:32.423Z,86.31
2023-04-02T18:44:06.178Z,85.77
2023-04-02T18:46:42.003Z,85.64
2023-04-02T18:49:22.852Z,85.00
2023-04-02T18:51:58.458Z,82.82
2023-04-02T18:54:42.954Z,81.54
2023-04-02T18:57:30.459Z,80.42
2023-04-02T19:00:05.253Z,80.15
2023-04-02T19:02:43.895Z,79.76
2023-04-02T19:05:35.499Z,78.66
2023-04-02T19:08:29.430Z,79.59
2023-04-02T19:11:00.868Z,80.43
2023-04-02T19:13:29.178Z,78.45
2023-04-02T19:16:10.256Z,77.94
2023-04-02T19:19:06.438Z,77.66
2023-04-02T19:21:50.868Z,77.99
2023-04-02T19:24:38.481Z,76.14
2023-04-02T19:27:12.613Z,76.32
2023-04-02T19:29:59.024Z,76.13
2023-04-02T19:33:07.984Z,75.46
2023-04-02T19:35:42.175Z,76.16
2023-04-02T19:38:47.738Z,77.20
2023-04-02T19:41:36.769Z,76.84
2023-04-02T19:44:09.780Z,76.68
2023-04-02T19:46:40.291Z,75.98
2023-04-02T19:49:32.637Z,75.64
2023-04-02T19:52:01.053Z,76.81
2023-04-02T19:54:29.337Z,79.67
2023-04-02T19:57:05.263Z,79.71
2023-04-02T19:59:50.589Z,83.00
2023-04-02T20:02:18.939Z,83.03
2023-04-02T20:04:47.848Z,82.44
2023-04-02T20:07:16.408Z,83.12
2023-04-02T20:09:47.505Z,83.61
2023-04-02T20:12:16.479Z,83.64
2023-04-02T20:14:44.341Z,83.80
2023-04-02T20:17:12.443Z,83.82
2023-04-02T20:19:40.430Z,83.34
2023-04-02T20:22:08.430Z,83.89
2023-04-02T20:24:36.239Z,82.85
2023-04-02T20:27:04.403Z,84.55
2023-04-02T20:29:32.375Z,82.97
2023-04-02T20:32:00.228Z,82.26
2023-04-02T20:34:28.810Z,82.04
2023-04-02T20:36:56.719Z,81.72
2023-04-02T20:39:24.507Z,81.50
2023-04-02T20:41:52.877Z,82.76
2023-04-02T20:44:20.501Z,82.37
2023-04-02T20:46:48.152Z,81.45
2023-04-02T20:49:16.128Z,82.64
2023-04-02T20:51:43.959Z,81.70
2023-04-02T20:54:11.652Z,81.77
2023-04-02T20:56:39.741Z,81.96
2023-04-02T20:59:07.416Z,82.99
2023-04-02T21:01:36.096Z,82.81
2023-04-02T21:04:04.649Z,83.25
2023-04-02T21:06:35.652Z,84.91
2023-04-02T21:09:07.809Z,83.96
2023-04-02T21:11:36.981Z,84.35
2023-04-02T21:14:05.025Z,85.29
2023-04-02T21:16:33.128Z,86.31
2023-04-02T21:19:04.716Z,86.16
2023-04-02T21:21:34.241Z,85.75
2023-04-02T21:24:05.082Z,85.33
2023-04-02T21:26:35.168Z,86.01
2023-04-02T21:29:03.867Z,86.80
2023-04-02T21:31:37.041Z,86.80
2023-04-02T21:34:05.756Z,85.98
2023-04-02T21:36:36.063Z,88.30
2023-04-02T21:39:06.508Z,87.24
2023-04-02T21:41:36.600Z,87.16
2023-04-02T21:44:07.797Z,87.46
2023-04-02T21:46:36.684Z,87.67
2023-04-02T21:49:06.024Z,87.41
2023-04-02T21:51:34.519Z,86.96
2023-04-02T21:54:02.747Z,87.48
2023-04-02T21:56:41.567Z,86.94
2023-04-02T21:59:10.706Z,86.61
2023-04-02T22:01:41.608Z,87.50
2023-04-02T22:04:10.790Z,88.65
2023-04-02T22:06:40.284Z,90.17
2023-04-02T22:09:11.343Z,90.52
2023-04-02T22:11:40.710Z,90.83
2023-04-02T22:14:08.655Z,90.58
2023-04-02T22:16:37.075Z,90.77
2023-04-02T22:19:08.605Z,90.58
2023-04-02T22:21:37.873Z,91.22
2023-04-02T22:24:08.089Z,92.19
2023-04-02T22:26:36.154Z,91.41
2023-04-02T22:29:04.840Z,91.60
2023-04-02T22:31:33.589Z,92.00
2023-04-02T22:34:02.842Z,92.51
2023-04-02T22:36:31.083Z,92.15
2023-04-02T22:38:59.890Z,92.15
2023-04-02T22:41:28.974Z,92.97
2023-04-02T22:43:57.906Z,92.51
2023-04-02T22:46:26.843Z,92.58
2023-04-02T22:48:55.021Z,94.02
2023-04-02T22:51:24.258Z,92.86
2023-04-02T22:53:54.084Z,91.82
2023-04-02T22:56:24.599Z,92.19
2023-04-02T22:58:52.525Z,91.52
2023-04-02T23:01:27.344Z,91.25
2023-04-02T23:03:55.741Z,90.46
2023-04-02T23:06:24.270Z,90.74
2023-04-02T23:08:52.637Z,91.49
2023-04-02T23:11:23.296Z,90.69
2023-04-02T23:13:52.881Z,90.78
2023-04-02T23:16:21.000Z,90.09
2023-04-02T23:18:48.992Z,90.60
2023-04-02T23:21:19.168Z,89.92
2023-04-02T23:23:48.099Z,89.81
2023-04-02T23:26:19.525Z,89.65
2023-04-02T23:28:47.523Z,89.31
2023-04-02T23:31:18.449Z,88.33
2023-04-02T23:33:46.080Z,89.37
2023-04-02T23:36:18.559Z,89.11
2023-04-02T23:38:46.576Z,89.77
2023-04-02T23:41:15.766Z,89.09
2023-04-02T23:43:43.896Z,88.48
2023-04-02T23:46:11.675Z,88.85
2023-04-02T23:48:39.765Z,87.71
2023-04-02T23:51:07.532Z,86.55
2023-04-02T23:53:35.704Z,86.30
2023-04-02T23:56:03.734Z,84.55
2023-04-02T23:58:31.711Z,85.92
